Ongar, United Kingdom
Current Conditions -  °F | °C
As of 5:50 AM on Thursday 27 Nov 2014 (Local Time) from EGSS Reporting Station
Haze Haze  
Wind Chill: 50°   Ceiling: 100
Heat Index: 50°   Visibility: 0.93mi
Dew Point: 50°   Wind: 7mph
Humidity: 100%   Direction: 140°SE
Pressure: 29.62"   Gusts: NA
Location:  51.71°N, 0.24°E
Report Text: EGSS 270550Z 14006KT 1500 BR OVC001 10/10 Q1003
Loading
Personal Weather Stations






























Interactive Weather Map New forecast layout! Learn more

10-Day Weather Forecast

Advertisements
Track Severe Weather on mobile